Time;durP1;ratioP1;P1;durP2;ratioP2;P2;SDS_P1;SDS_P2;PMS_P1;PMS_P2;Temp;Humidity;BMP_temperature;BMP_pressure;BME280_temperature;BME280_humidity;BME280_pressure;Samples;Min_cycle;Max_cycle;Signal;HPM_P1;HPM_P2
2023/09/03 00:01:08;;;;;;;5.70;3.20;;;19.50;79.00;;;;;;5083002;28;20472;-79
2023/09/03 00:03:36;;;;;;;5.67;2.73;;;19.40;78.90;;;;;;5086015;28;20461;-77
2023/09/03 00:06:05;;;;;;;6.10;2.70;;;19.40;79.00;;;;;;5087885;28;20504;-78
2023/09/03 00:08:34;;;;;;;7.83;2.87;;;19.40;79.10;;;;;;5084731;28;20539;-78
2023/09/03 00:11:02;;;;;;;5.87;3.10;;;19.40;79.10;;;;;;5084591;28;20459;-79
2023/09/03 00:13:32;;;;;;;7.80;2.73;;;19.40;79.10;;;;;;5080038;28;20457;-80
2023/09/03 00:16:00;;;;;;;5.50;2.37;;;19.30;79.10;;;;;;5083096;28;20461;-79
2023/09/03 00:18:28;;;;;;;8.60;2.90;;;19.30;79.20;;;;;;5083527;28;20569;-78
2023/09/03 00:20:57;;;;;;;7.57;2.50;;;19.40;79.30;;;;;;5072116;28;20472;-80
2023/09/03 00:23:25;;;;;;;11.00;2.50;;;19.40;79.20;;;;;;5067016;28;20504;-80
2023/09/03 00:25:56;;;;;;;6.77;3.10;;;19.40;79.10;;;;;;5085567;28;20487;-78
2023/09/03 00:28:25;;;;;;;8.30;2.77;;;19.30;79.10;;;;;;5085984;28;20451;-76
2023/09/03 00:31:03;;;;;;;12.40;2.93;;;19.30;79.00;;;;;;5073313;28;20568;-78
2023/09/03 00:33:31;;;;;;;4.50;2.37;;;19.30;79.00;;;;;;5082372;28;20455;-79
2023/09/03 00:36:01;;;;;;;6.30;2.40;;;19.20;79.10;;;;;;5084582;28;20484;-78
2023/09/03 00:38:29;;;;;;;5.33;2.80;;;19.20;79.20;;;;;;5063079;28;20456;-78
2023/09/03 00:40:58;;;;;;;10.07;2.83;;;19.20;79.20;;;;;;5066415;28;20452;-79
2023/09/03 00:43:28;;;;;;;5.70;3.07;;;19.20;79.20;;;;;;5073512;28;20453;-78
2023/09/03 00:45:57;;;;;;;5.90;3.00;;;19.20;79.20;;;;;;5063599;28;20484;-78
2023/09/03 00:48:28;;;;;;;7.73;3.27;;;19.10;79.10;;;;;;5082545;28;20469;-78
2023/09/03 00:50:59;;;;;;;5.90;3.53;;;19.10;79.10;;;;;;5064757;28;20467;-80
2023/09/03 00:53:30;;;;;;;6.40;3.13;;;19.00;79.20;;;;;;5069269;28;20894;-78
2023/09/03 00:56:02;;;;;;;9.83;3.37;;;19.00;79.10;;;;;;5081234;28;20990;-78
2023/09/03 00:58:30;;;;;;;6.30;3.03;;;18.90;79.20;;;;;;5083815;28;20460;-78
2023/09/03 01:00:59;;;;;;;10.97;3.53;;;18.90;79.30;;;;;;5059884;28;20574;-79
2023/09/03 01:03:27;;;;;;;7.53;3.30;;;18.90;79.40;;;;;;5064908;28;20544;-78
2023/09/03 01:05:55;;;;;;;6.10;3.17;;;18.80;79.40;;;;;;5082603;28;20556;-78
2023/09/03 01:08:24;;;;;;;8.47;4.00;;;18.80;79.50;;;;;;5081910;28;20456;-79
2023/09/03 01:11:02;;;;;;;8.10;3.60;;;18.80;79.50;;;;;;5086766;28;20548;-78
2023/09/03 01:13:38;;;;;;;6.43;3.20;;;18.80;79.50;;;;;;5066234;28;20539;-78
2023/09/03 01:16:13;;;;;;;5.80;3.10;;;18.80;79.60;;;;;;5079755;28;20458;-78
2023/09/03 01:18:42;;;;;;;7.77;3.20;;;18.80;79.70;;;;;;5084421;28;20453;-79
2023/09/03 01:21:39;;;;;;;5.90;2.90;;;18.80;79.60;;;;;;5068926;28;20514;-78
2023/09/03 01:24:24;;;;;;;6.10;2.50;;;18.80;79.60;;;;;;5065456;28;20500;-80
2023/09/03 01:27:02;;;;;;;7.90;2.77;;;18.80;79.50;;;;;;5080718;28;20477;-80
2023/09/03 01:29:32;;;;;;;5.60;2.80;;;18.80;79.40;;;;;;5087307;28;20982;-78
2023/09/03 01:32:02;;;;;;;8.00;2.90;;;18.70;79.40;;;;;;5067717;28;20492;-78
2023/09/03 01:34:30;;;;;;;6.03;2.40;;;18.70;79.40;;;;;;5078035;28;21047;-78
2023/09/03 01:36:59;;;;;;;9.50;3.23;;;18.70;79.40;;;;;;5084117;28;20483;-79
2023/09/03 01:39:27;;;;;;;5.67;2.67;;;18.70;79.40;;;;;;5078177;28;20453;-78
2023/09/03 01:41:55;;;;;;;7.23;3.00;;;18.70;79.40;;;;;;5085334;28;20469;-78
2023/09/03 01:44:23;;;;;;;6.63;3.00;;;18.60;79.50;;;;;;5083246;28;20571;-79
2023/09/03 01:47:01;;;;;;;7.83;2.93;;;18.60;79.50;;;;;;5084994;28;20465;-78
2023/09/03 01:49:41;;;;;;;6.00;3.23;;;18.60;79.30;;;;;;5075758;28;20525;-80
2023/09/03 01:52:22;;;;;;;5.30;3.03;;;18.60;79.20;;;;;;5075163;28;20547;-79
2023/09/03 01:54:52;;;;;;;6.67;3.03;;;18.50;79.40;;;;;;5065716;28;20552;-79
2023/09/03 01:57:26;;;;;;;8.30;3.33;;;18.50;79.40;;;;;;5075831;28;21078;-79
2023/09/03 02:00:00;;;;;;;6.00;2.90;;;18.50;79.40;;;;;;5081461;28;20448;-79
2023/09/03 02:02:31;;;;;;;11.43;3.17;;;18.50;79.50;;;;;;5086992;28;20478;-80
2023/09/03 02:04:59;;;;;;;6.40;3.30;;;18.50;79.50;;;;;;5073159;28;20463;-79
2023/09/03 02:07:27;;;;;;;7.13;3.10;;;18.50;79.40;;;;;;5073110;28;20507;-79
2023/09/03 02:09:55;;;;;;;6.73;3.17;;;18.50;79.40;;;;;;5072880;28;20453;-79
2023/09/03 02:12:24;;;;;;;5.80;3.03;;;18.40;79.40;;;;;;5069369;28;21177;-79
2023/09/03 02:14:53;;;;;;;6.43;2.87;;;18.40;79.40;;;;;;5086805;28;20520;-78
2023/09/03 02:17:21;;;;;;;6.33;3.37;;;18.40;79.50;;;;;;5087976;28;20449;-78
2023/09/03 02:19:52;;;;;;;7.17;3.50;;;18.40;79.60;;;;;;5067898;28;20467;-79
2023/09/03 02:22:20;;;;;;;11.63;3.17;;;18.40;79.60;;;;;;5088072;28;20628;-80
2023/09/03 02:24:51;;;;;;;6.43;3.47;;;18.40;79.50;;;;;;5073493;28;20488;-78
2023/09/03 02:27:19;;;;;;;7.00;3.70;;;18.40;79.50;;;;;;5086833;28;20489;-78
2023/09/03 02:29:47;;;;;;;8.60;4.00;;;18.40;79.50;;;;;;5090172;28;20462;-78
2023/09/03 02:32:16;;;;;;;8.83;4.40;;;18.40;79.50;;;;;;5106487;28;20528;-78
2023/09/03 02:34:44;;;;;;;9.83;4.20;;;18.40;79.50;;;;;;5091767;28;20464;-78
2023/09/03 02:37:16;;;;;;;8.80;4.80;;;18.40;79.60;;;;;;5094697;27;20930;-80
2023/09/03 02:39:45;;;;;;;8.20;4.90;;;18.40;79.70;;;;;;5090027;28;20468;-80
2023/09/03 02:42:13;;;;;;;8.23;4.43;;;18.40;79.80;;;;;;5086220;28;20555;-78
2023/09/03 02:44:41;;;;;;;9.83;3.80;;;18.40;79.80;;;;;;5108755;28;20456;-79
2023/09/03 02:47:09;;;;;;;7.67;3.60;;;18.40;79.80;;;;;;5111455;28;20582;-79
2023/09/03 02:49:37;;;;;;;7.50;3.93;;;18.40;79.80;;;;;;5111534;28;20436;-78
2023/09/03 02:52:05;;;;;;;7.33;3.57;;;18.40;79.80;;;;;;5110704;28;20543;-78
2023/09/03 02:54:35;;;;;;;7.20;3.87;;;18.30;79.80;;;;;;5091586;28;20816;-78
2023/09/03 02:57:04;;;;;;;7.80;4.10;;;18.30;79.90;;;;;;5091999;28;20986;-78
2023/09/03 02:59:34;;;;;;;11.80;4.47;;;18.30;79.90;;;;;;5091671;28;20989;-79
2023/09/03 03:02:02;;;;;;;7.13;4.40;;;18.30;80.00;;;;;;5091427;28;20491;-79
2023/09/03 03:04:30;;;;;;;7.97;4.07;;;18.30;80.10;;;;;;5111153;28;21222;-79
2023/09/03 03:06:58;;;;;;;8.27;4.70;;;18.30;80.10;;;;;;5109963;27;20899;-77
2023/09/03 03:09:26;;;;;;;8.80;4.57;;;18.30;80.20;;;;;;5110266;28;20470;-80
2023/09/03 03:11:56;;;;;;;6.70;3.80;;;18.30;80.30;;;;;;5109735;28;20487;-81
2023/09/03 03:14:24;;;;;;;7.17;4.20;;;18.30;80.40;;;;;;5091941;28;20958;-79
2023/09/03 03:16:54;;;;;;;6.40;3.63;;;18.30;80.50;;;;;;5091506;28;21004;-79
2023/09/03 03:19:22;;;;;;;6.80;3.67;;;18.30;80.60;;;;;;5110786;28;20546;-79
2023/09/03 03:21:50;;;;;;;6.50;3.63;;;18.30;80.60;;;;;;5107939;28;20488;-78
2023/09/03 03:24:19;;;;;;;5.50;3.30;;;18.30;80.60;;;;;;5092893;28;20463;-79
2023/09/03 03:26:48;;;;;;;7.60;3.90;;;18.30;80.70;;;;;;5089620;28;20459;-79
2023/09/03 03:29:21;;;;;;;6.73;3.90;;;18.30;80.70;;;;;;5089600;28;20548;-80
2023/09/03 03:31:52;;;;;;;6.53;3.87;;;18.30;80.80;;;;;;5112637;27;20819;-79
2023/09/03 03:34:20;;;;;;;7.57;3.43;;;18.30;80.80;;;;;;5112185;28;20542;-81
2023/09/03 03:36:56;;;;;;;9.50;4.43;;;18.30;80.80;;;;;;5092498;28;20462;-80
2023/09/03 03:39:25;;;;;;;10.73;4.10;;;18.30;80.90;;;;;;5093049;28;20531;-78
2023/09/03 03:41:54;;;;;;;6.27;3.77;;;18.30;81.00;;;;;;5091748;28;20464;-79
2023/09/03 03:44:24;;;;;;;7.20;4.17;;;18.30;81.00;;;;;;5112007;27;20505;-79
2023/09/03 03:46:52;;;;;;;7.57;4.80;;;18.30;81.10;;;;;;5091725;27;20551;-78
2023/09/03 03:49:20;;;;;;;6.97;4.10;;;18.30;81.20;;;;;;5111715;27;20463;-80
2023/09/03 03:51:49;;;;;;;6.70;4.00;;;18.30;81.30;;;;;;5101369;28;20487;-78
2023/09/03 03:54:20;;;;;;;7.57;3.83;;;18.30;81.30;;;;;;5091613;28;20958;-78
2023/09/03 03:56:48;;;;;;;7.00;4.63;;;18.30;81.30;;;;;;5109326;28;20460;-78
2023/09/03 03:59:16;;;;;;;7.67;4.30;;;18.30;81.30;;;;;;5089553;28;20547;-80
2023/09/03 04:01:45;;;;;;;7.13;4.23;;;18.30;81.30;;;;;;5092957;28;20476;-79
2023/09/03 04:04:13;;;;;;;6.40;3.53;;;18.30;81.40;;;;;;5071175;28;20464;-80
2023/09/03 04:06:42;;;;;;;6.60;3.97;;;18.30;81.40;;;;;;5070862;28;21007;-81
2023/09/03 04:09:10;;;;;;;6.70;3.70;;;18.30;81.40;;;;;;5089171;28;20461;-78
2023/09/03 04:11:38;;;;;;;6.53;3.87;;;18.30;81.30;;;;;;5070377;28;20487;-80
2023/09/03 04:14:07;;;;;;;5.90;3.33;;;18.20;81.30;;;;;;5088746;28;20790;-79
2023/09/03 04:16:35;;;;;;;7.40;4.07;;;18.20;81.20;;;;;;5071219;28;20463;-80
2023/09/03 04:19:06;;;;;;;12.13;4.00;;;18.20;81.20;;;;;;5070120;28;20513;-80
2023/09/03 04:21:36;;;;;;;7.10;4.13;;;18.20;81.20;;;;;;5072128;28;20455;-76
2023/09/03 04:24:06;;;;;;;5.47;3.53;;;18.10;81.30;;;;;;5088323;28;20675;-79
2023/09/03 04:26:36;;;;;;;6.70;3.80;;;18.10;81.30;;;;;;5086451;28;20448;-79
2023/09/03 04:29:06;;;;;;;6.87;3.77;;;18.10;81.40;;;;;;5070462;28;20472;-79
2023/09/03 04:31:36;;;;;;;6.17;3.10;;;18.10;81.40;;;;;;5075463;28;20538;-79
2023/09/03 04:34:07;;;;;;;4.80;2.63;;;18.10;81.50;;;;;;5086099;28;21020;-79
2023/09/03 04:36:36;;;;;;;4.53;2.47;;;18.10;81.50;;;;;;5092935;28;20505;-80
2023/09/03 04:39:08;;;;;;;5.07;2.87;;;18.10;81.50;;;;;;5087867;28;20506;-78
2023/09/03 04:41:36;;;;;;;8.93;3.10;;;18.10;81.40;;;;;;5087568;28;20487;-79
2023/09/03 04:44:12;;;;;;;4.90;2.57;;;18.10;81.30;;;;;;5087626;28;20467;-79
2023/09/03 04:46:51;;;;;;;6.07;3.17;;;18.10;81.30;;;;;;5087528;28;20457;-78
2023/09/03 04:49:23;;;;;;;4.90;2.20;;;18.10;81.40;;;;;;5085332;28;20491;-80
2023/09/03 04:51:51;;;;;;;5.40;3.03;;;18.10;81.40;;;;;;5086699;28;21192;-78
2023/09/03 04:54:18;;;;;;;4.60;2.57;;;18.10;81.40;;;;;;5084986;28;20484;-80
2023/09/03 04:56:48;;;;;;;5.00;2.90;;;18.10;81.40;;;;;;5081350;28;20454;-79
2023/09/03 04:59:17;;;;;;;5.07;2.63;;;18.10;81.40;;;;;;5103825;28;20456;-78
2023/09/03 05:01:47;;;;;;;5.60;3.20;;;18.10;81.40;;;;;;5076719;28;20541;-79
2023/09/03 05:04:15;;;;;;;6.20;2.97;;;18.10;81.40;;;;;;5097067;28;20965;-79
2023/09/03 05:06:44;;;;;;;5.57;3.13;;;18.10;81.40;;;;;;5081216;28;20521;-80
2023/09/03 05:09:18;;;;;;;6.40;3.50;;;18.10;81.50;;;;;;5087650;28;20504;-79
2023/09/03 05:11:46;;;;;;;11.47;4.20;;;18.10;81.40;;;;;;5083370;28;20459;-80
2023/09/03 05:14:18;;;;;;;7.73;3.90;;;18.10;81.40;;;;;;5086451;28;20488;-80
2023/09/03 05:16:47;;;;;;;6.20;3.57;;;18.10;81.50;;;;;;5082817;28;20463;-81
2023/09/03 05:19:18;;;;;;;6.40;3.67;;;18.10;81.50;;;;;;5085801;28;20456;-78
2023/09/03 05:21:49;;;;;;;6.87;3.73;;;18.10;81.60;;;;;;5085393;28;20618;-81
2023/09/03 05:24:17;;;;;;;5.10;2.87;;;18.10;81.70;;;;;;5107612;28;20459;-80
2023/09/03 05:26:48;;;;;;;6.70;3.60;;;18.10;81.70;;;;;;5090874;28;20476;-79
2023/09/03 05:29:17;;;;;;;12.87;3.87;;;18.10;81.70;;;;;;5088704;28;21001;-80
2023/09/03 05:31:45;;;;;;;16.43;4.50;;;18.10;81.70;;;;;;5085466;28;20509;-79
2023/09/03 05:34:19;;;;;;;7.07;3.37;;;18.10;81.70;;;;;;5089187;28;20448;-79
2023/09/03 05:36:49;;;;;;;5.23;2.80;;;18.10;81.80;;;;;;5087895;28;20460;-80
2023/09/03 05:39:18;;;;;;;5.90;3.10;;;18.10;81.90;;;;;;5089065;28;20483;-80
2023/09/03 05:41:46;;;;;;;4.90;2.70;;;18.10;82.00;;;;;;5071460;28;20484;-81
2023/09/03 05:44:15;;;;;;;6.53;2.93;;;18.10;82.00;;;;;;5070508;28;20514;-79
2023/09/03 05:46:46;;;;;;;4.83;2.10;;;18.10;82.00;;;;;;5089842;28;20815;-79
2023/09/03 05:49:14;;;;;;;7.80;2.40;;;18.10;82.10;;;;;;5069445;28;21060;-80
2023/09/03 05:51:43;;;;;;;6.03;2.10;;;18.20;82.20;;;;;;5086460;28;20484;-79
2023/09/03 05:54:13;;;;;;;5.00;2.40;;;18.20;82.20;;;;;;5072449;28;20961;-80
2023/09/03 05:56:42;;;;;;;4.63;2.10;;;18.30;82.20;;;;;;5087066;28;20453;-81
2023/09/03 05:59:11;;;;;;;4.00;1.83;;;18.30;82.20;;;;;;5090235;28;20445;-78
2023/09/03 06:01:40;;;;;;;4.20;2.10;;;18.30;82.20;;;;;;5083196;28;20512;-79
2023/09/03 06:04:13;;;;;;;3.93;1.73;;;18.40;82.30;;;;;;5089994;28;20847;-79
2023/09/03 06:06:43;;;;;;;4.60;2.40;;;18.40;82.30;;;;;;5067292;28;20457;-80
2023/09/03 06:09:10;;;;;;;4.10;2.00;;;18.40;82.30;;;;;;5090184;28;20469;-82
2023/09/03 06:11:42;;;;;;;4.57;1.93;;;18.50;82.30;;;;;;5085207;28;20457;-79
2023/09/03 06:14:10;;;;;;;4.00;2.00;;;18.50;82.30;;;;;;5069192;28;20652;-78
2023/09/03 06:16:38;;;;;;;4.50;2.13;;;18.50;82.40;;;;;;5089789;28;20468;-77
2023/09/03 06:19:06;;;;;;;4.50;2.20;;;18.60;82.40;;;;;;5086474;28;20460;-79
2023/09/03 06:21:34;;;;;;;5.17;2.63;;;18.60;82.40;;;;;;5069196;28;20888;-79
2023/09/03 06:24:06;;;;;;;4.70;2.30;;;18.60;82.40;;;;;;5086233;28;20467;-79
2023/09/03 06:26:34;;;;;;;4.80;2.33;;;18.70;82.50;;;;;;5085323;28;21016;-79
2023/09/03 06:29:04;;;;;;;5.40;2.40;;;18.70;82.50;;;;;;5088726;28;21086;-80
2023/09/03 06:31:36;;;;;;;8.30;2.97;;;18.70;82.50;;;;;;5086311;28;20488;-80
2023/09/03 06:34:06;;;;;;;5.40;3.20;;;18.70;82.40;;;;;;5088058;28;20548;-80
2023/09/03 06:36:34;;;;;;;6.17;3.00;;;18.80;82.50;;;;;;5090392;28;20453;-79
2023/09/03 06:39:03;;;;;;;5.60;3.27;;;18.80;82.50;;;;;;5092259;28;20457;-79
2023/09/03 06:41:31;;;;;;;4.80;2.80;;;18.80;82.50;;;;;;5093640;28;20986;-80
2023/09/03 06:43:58;;;;;;;4.80;2.50;;;18.80;82.50;;;;;;5089707;28;21049;-79
2023/09/03 06:46:28;;;;;;;4.97;2.80;;;18.90;82.60;;;;;;5091117;28;20540;-77
2023/09/03 06:48:58;;;;;;;4.83;2.50;;;18.90;82.60;;;;;;5090266;28;20999;-78
2023/09/03 06:51:26;;;;;;;4.60;2.63;;;18.90;82.70;;;;;;5090888;28;20499;-80
2023/09/03 06:53:54;;;;;;;4.47;2.23;;;19.00;82.70;;;;;;5090356;28;20484;-81
2023/09/03 06:56:23;;;;;;;4.50;2.50;;;19.00;82.80;;;;;;5090644;28;20821;-81
2023/09/03 06:58:51;;;;;;;5.70;2.67;;;19.10;82.80;;;;;;5087343;28;20565;-80
2023/09/03 07:01:19;;;;;;;5.83;2.70;;;19.10;82.80;;;;;;5086731;28;21026;-79
2023/09/03 07:03:48;;;;;;;4.80;2.60;;;19.10;82.90;;;;;;5070240;28;20456;-79
2023/09/03 07:06:16;;;;;;;5.80;2.83;;;19.20;82.90;;;;;;5090278;28;20826;-80
2023/09/03 07:08:44;;;;;;;5.00;2.77;;;19.20;82.90;;;;;;5087353;28;20458;-82
2023/09/03 07:11:12;;;;;;;5.47;2.70;;;19.20;82.80;;;;;;5089111;28;20810;-80
2023/09/03 07:13:40;;;;;;;5.50;2.77;;;19.30;82.90;;;;;;5089690;28;20543;-80
2023/09/03 07:16:08;;;;;;;5.10;2.40;;;19.30;82.90;;;;;;5089724;28;20499;-80
2023/09/03 07:18:36;;;;;;;6.20;2.73;;;19.40;82.90;;;;;;5088400;28;20460;-80
2023/09/03 07:21:07;;;;;;;5.40;3.20;;;19.40;82.90;;;;;;5068876;28;20464;-81
2023/09/03 07:23:35;;;;;;;4.63;2.50;;;19.40;83.10;;;;;;5089586;28;20792;-80
2023/09/03 07:26:05;;;;;;;7.77;3.87;;;19.50;83.10;;;;;;5086233;28;20497;-79
2023/09/03 07:28:34;;;;;;;5.10;2.70;;;19.50;83.20;;;;;;5087302;28;20480;-79
2023/09/03 07:31:02;;;;;;;8.60;3.03;;;19.50;83.30;;;;;;5086211;28;21004;-79
2023/09/03 07:33:32;;;;;;;5.20;2.80;;;19.60;83.30;;;;;;5089570;28;20448;-81
2023/09/03 07:36:00;;;;;;;7.63;3.40;;;19.60;83.30;;;;;;5084624;28;20465;-79
2023/09/03 07:38:29;;;;;;;7.00;3.17;;;19.70;83.30;;;;;;5070863;28;21370;-79
2023/09/03 07:40:58;;;;;;;5.20;2.70;;;19.70;83.30;;;;;;5088459;28;20967;-79
2023/09/03 07:43:26;;;;;;;8.23;3.00;;;19.80;83.30;;;;;;5089533;28;21377;-80
2023/09/03 07:45:54;;;;;;;6.40;2.87;;;19.80;83.30;;;;;;5084210;28;20470;-80
2023/09/03 07:48:23;;;;;;;4.57;2.60;;;19.90;83.30;;;;;;5088594;28;20453;-79
2023/09/03 07:50:51;;;;;;;4.77;2.77;;;19.90;83.30;;;;;;5085878;28;20479;-80
2023/09/03 07:53:19;;;;;;;6.30;3.33;;;20.00;83.10;;;;;;5086154;28;20469;-79
2023/09/03 07:55:48;;;;;;;7.23;4.20;;;20.00;83.10;;;;;;5067229;28;20457;-80
2023/09/03 07:58:19;;;;;;;7.07;3.47;;;20.10;83.00;;;;;;5082685;28;20493;-78
2023/09/03 08:00:47;;;;;;;6.87;3.47;;;20.20;83.00;;;;;;5085011;28;20821;-78
2023/09/03 08:03:15;;;;;;;7.00;3.73;;;20.20;83.00;;;;;;5085918;28;20456;-78
2023/09/03 08:05:43;;;;;;;5.60;2.83;;;20.20;83.10;;;;;;5072032;28;20867;-79
2023/09/03 08:08:11;;;;;;;5.60;3.27;;;20.20;83.10;;;;;;5088243;28;20532;-78
2023/09/03 08:10:39;;;;;;;5.90;3.23;;;20.30;83.10;;;;;;5086722;28;20473;-78
2023/09/03 08:13:09;;;;;;;6.33;3.67;;;20.30;83.20;;;;;;5088407;28;20455;-78
2023/09/03 08:15:37;;;;;;;5.57;3.20;;;20.40;83.20;;;;;;5090717;28;20484;-78
2023/09/03 08:18:11;;;;;;;5.30;3.23;;;20.40;83.20;;;;;;5072078;28;20441;-80
2023/09/03 08:20:41;;;;;;;6.73;3.77;;;20.30;83.20;;;;;;5090255;28;20444;-80
2023/09/03 08:23:11;;;;;;;6.27;3.93;;;20.30;83.30;;;;;;5088800;28;20441;-77
2023/09/03 08:25:39;;;;;;;7.47;3.73;;;20.30;83.40;;;;;;5085107;28;20453;-77
2023/09/03 08:28:09;;;;;;;5.50;3.03;;;20.40;83.40;;;;;;5072180;28;20449;-78
2023/09/03 08:30:38;;;;;;;5.90;3.70;;;20.40;83.50;;;;;;5087733;28;20497;-78
2023/09/03 08:33:06;;;;;;;7.10;4.50;;;20.50;83.40;;;;;;5070889;28;21012;-79
2023/09/03 08:35:35;;;;;;;6.97;4.00;;;20.50;83.30;;;;;;5088785;28;20460;-79
2023/09/03 08:38:04;;;;;;;7.17;4.20;;;20.60;83.30;;;;;;5087750;28;20453;-77
2023/09/03 08:40:33;;;;;;;7.33;4.20;;;20.60;83.30;;;;;;5086315;28;20527;-79
2023/09/03 08:43:06;;;;;;;6.67;4.27;;;20.60;83.30;;;;;;5088412;28;20472;-80
2023/09/03 08:45:41;;;;;;;6.90;4.10;;;20.70;83.30;;;;;;5087487;28;20842;-78
2023/09/03 08:48:11;;;;;;;7.70;4.33;;;20.70;83.20;;;;;;5085103;28;20971;-79
2023/09/03 08:50:40;;;;;;;7.87;5.07;;;20.80;83.30;;;;;;5085270;28;20484;-80
2023/09/03 08:53:08;;;;;;;7.97;5.10;;;20.80;83.20;;;;;;5088925;28;20514;-77
2023/09/03 08:55:39;;;;;;;8.70;4.67;;;20.90;83.20;;;;;;5072056;28;20467;-79
2023/09/03 08:58:07;;;;;;;7.73;4.50;;;20.90;83.10;;;;;;5093503;28;20526;-78
2023/09/03 09:00:38;;;;;;;8.50;4.97;;;21.00;83.00;;;;;;5077462;28;20456;-78
2023/09/03 09:03:10;;;;;;;10.93;5.00;;;21.00;82.90;;;;;;5113039;27;20907;-78
2023/09/03 09:05:42;;;;;;;8.53;5.10;;;21.10;82.70;;;;;;5093360;27;20461;-80
2023/09/03 09:08:10;;;;;;;7.60;5.30;;;21.10;82.70;;;;;;5100102;28;20459;-79
2023/09/03 09:10:47;;;;;;;8.70;5.20;;;21.10;82.50;;;;;;5111996;28;21069;-79
2023/09/03 09:13:19;;;;;;;9.80;5.93;;;21.20;82.40;;;;;;5112286;28;20447;-77
2023/09/03 09:15:50;;;;;;;9.13;5.27;;;21.20;82.20;;;;;;5114611;27;20490;-78
2023/09/03 09:18:18;;;;;;;10.47;5.73;;;21.30;82.20;;;;;;5117429;27;20447;-79
2023/09/03 09:20:48;;;;;;;8.03;5.60;;;21.40;82.00;;;;;;5111877;27;21018;-79
2023/09/03 09:23:21;;;;;;;8.33;5.57;;;21.40;81.90;;;;;;5112624;27;20443;-77
2023/09/03 09:25:50;;;;;;;9.67;5.20;;;21.40;81.80;;;;;;5118694;27;20447;-78
2023/09/03 09:28:19;;;;;;;7.60;4.70;;;21.50;81.70;;;;;;5111532;27;20444;-77
2023/09/03 09:30:57;;;;;;;8.80;6.00;;;21.60;81.70;;;;;;5105861;27;20583;-77
2023/09/03 09:33:26;;;;;;;9.50;5.73;;;21.70;81.50;;;;;;5090457;28;20555;-78
2023/09/03 09:35:55;;;;;;;6.87;4.90;;;21.70;81.40;;;;;;5082949;28;20449;-77
2023/09/03 09:38:35;;;;;;;11.17;6.20;;;21.80;81.20;;;;;;5092423;28;20462;-78
2023/09/03 09:41:21;;;;;;;9.53;6.43;;;21.80;80.90;;;;;;5090980;28;20505;-79
2023/09/03 09:43:49;;;;;;;8.80;6.10;;;21.80;80.60;;;;;;5090680;28;20444;-79
2023/09/03 09:46:27;;;;;;;7.37;4.97;;;21.80;80.50;;;;;;5089381;28;20461;-77
2023/09/03 09:48:56;;;;;;;8.27;5.40;;;21.90;80.30;;;;;;5089258;28;20445;-78
2023/09/03 09:51:25;;;;;;;9.27;4.93;;;21.90;80.20;;;;;;5091046;28;20488;-78
2023/09/03 09:53:56;;;;;;;8.60;5.10;;;21.90;80.10;;;;;;5090399;28;20445;-77
2023/09/03 09:56:29;;;;;;;8.50;6.00;;;21.90;80.10;;;;;;5090854;28;20543;-80
2023/09/03 09:58:58;;;;;;;7.53;4.63;;;22.00;80.10;;;;;;5078860;28;20485;-78
2023/09/03 10:01:41;;;;;;;6.47;4.53;;;22.00;80.00;;;;;;5088000;28;20472;-78
2023/09/03 10:04:10;;;;;;;7.10;4.10;;;22.10;79.90;;;;;;5091525;28;20444;-78
2023/09/03 10:06:38;;;;;;;6.63;4.30;;;22.10;79.80;;;;;;5090075;28;20460;-80
2023/09/03 10:09:07;;;;;;;9.27;5.27;;;22.20;79.70;;;;;;5087354;28;20449;-79
2023/09/03 10:11:36;;;;;;;7.70;4.90;;;22.20;79.60;;;;;;5084526;28;20480;-79
2023/09/03 10:14:04;;;;;;;7.90;3.97;;;22.20;79.40;;;;;;5083415;28;20545;-78
2023/09/03 10:16:33;;;;;;;6.97;3.90;;;22.20;79.30;;;;;;5090116;28;20544;-79
2023/09/03 10:19:07;;;;;;;9.90;4.33;;;22.20;79.20;;;;;;5087820;28;20452;-76
2023/09/03 10:21:38;;;;;;;6.17;4.20;;;22.30;79.00;;;;;;5085467;28;20451;-78
2023/09/03 10:24:23;;;;;;;7.17;4.50;;;22.30;78.70;;;;;;5086291;28;20444;-79
2023/09/03 10:26:55;;;;;;;8.77;3.60;;;22.30;78.60;;;;;;5085782;28;20538;-78
2023/09/03 10:29:25;;;;;;;5.90;3.77;;;22.40;78.50;;;;;;5083129;28;20475;-79
2023/09/03 10:32:01;;;;;;;7.33;3.37;;;22.40;78.40;;;;;;5090880;28;20476;-79
2023/09/03 10:34:30;;;;;;;6.00;3.63;;;22.40;78.30;;;;;;5091535;28;20939;-79
2023/09/03 10:37:06;;;;;;;6.00;3.20;;;22.50;78.10;;;;;;5072455;28;20951;-79
2023/09/03 10:39:35;;;;;;;6.00;3.33;;;22.50;77.90;;;;;;5072945;28;20456;-78
2023/09/03 10:42:30;;;;;;;7.57;3.30;;;22.50;77.80;;;;;;5089991;28;20522;-80
2023/09/03 10:44:59;;;;;;;7.20;3.97;;;22.50;77.30;;;;;;5083563;28;20457;-78
2023/09/03 10:47:28;;;;;;;7.53;3.60;;;22.50;77.30;;;;;;5072226;28;20817;-78
2023/09/03 10:49:57;;;;;;;5.63;3.40;;;22.50;77.10;;;;;;5073924;28;20449;-78
2023/09/03 10:52:37;;;;;;;5.27;3.20;;;22.50;76.90;;;;;;5090847;28;20876;-79
2023/09/03 10:55:20;;;;;;;6.40;3.60;;;22.60;76.80;;;;;;5088202;28;20467;-79
2023/09/03 10:57:49;;;;;;;5.93;3.50;;;22.50;76.60;;;;;;5089681;28;21040;-78
2023/09/03 11:00:21;;;;;;;6.00;3.67;;;22.60;76.90;;;;;;5091513;28;20488;-80
2023/09/03 11:02:51;;;;;;;5.27;3.27;;;22.60;76.80;;;;;;5094242;28;20536;-79
2023/09/03 11:05:32;;;;;;;6.20;3.63;;;22.70;76.60;;;;;;5094699;28;20825;-83
2023/09/03 11:08:29;;;;;;;7.73;3.97;;;22.70;76.50;;;;;;5099619;28;20885;-77
2023/09/03 11:10:57;;;;;;;7.10;3.50;;;22.90;76.60;;;;;;5072322;28;20462;-79
2023/09/03 11:13:26;;;;;;;6.07;3.63;;;23.10;76.50;;;;;;5090564;28;20487;-80
2023/09/03 11:16:05;;;;;;;5.83;3.40;;;23.40;76.10;;;;;;5091647;28;20466;-80
2023/09/03 11:18:35;;;;;;;5.40;3.00;;;23.70;75.60;;;;;;5074244;28;20461;-79
2023/09/03 11:21:03;;;;;;;5.50;3.20;;;23.80;74.90;;;;;;5089955;28;20480;-79
2023/09/03 11:23:32;;;;;;;5.50;2.87;;;23.90;74.20;;;;;;5066568;28;20535;-80
2023/09/03 11:26:05;;;;;;;6.00;3.03;;;23.90;73.90;;;;;;5067267;28;20457;-79
2023/09/03 11:28:36;;;;;;;7.70;3.43;;;24.10;73.80;;;;;;5083830;28;20485;-79
2023/09/03 11:31:05;;;;;;;7.10;3.30;;;24.20;73.50;;;;;;5077393;28;20918;-79
2023/09/03 11:33:34;;;;;;;5.73;3.50;;;24.20;73.20;;;;;;5084973;28;20489;-79
2023/09/03 11:36:03;;;;;;;8.10;2.93;;;24.30;73.00;;;;;;5088554;28;20539;-79
2023/09/03 11:38:32;;;;;;;6.17;3.20;;;24.40;72.90;;;;;;5083207;28;20480;-78
2023/09/03 11:41:00;;;;;;;8.43;2.97;;;24.50;72.40;;;;;;5087539;28;20541;-80
2023/09/03 11:43:30;;;;;;;6.50;3.33;;;24.50;72.10;;;;;;5083324;28;20457;-78
2023/09/03 11:46:00;;;;;;;5.80;3.23;;;24.50;71.70;;;;;;5080347;28;20456;-80
2023/09/03 11:48:32;;;;;;;6.10;3.30;;;24.50;71.50;;;;;;5081184;28;20453;-78
2023/09/03 11:51:02;;;;;;;6.07;3.20;;;24.60;71.70;;;;;;5079280;28;21312;-79
2023/09/03 11:53:39;;;;;;;5.97;3.03;;;24.70;71.40;;;;;;5082804;28;20559;-80
2023/09/03 11:56:08;;;;;;;6.23;2.97;;;24.80;70.80;;;;;;5083825;28;20442;-79
2023/09/03 11:58:36;;;;;;;5.70;3.20;;;24.90;70.70;;;;;;5087000;28;20471;-80
2023/09/03 12:01:05;;;;;;;8.57;3.40;;;24.90;70.30;;;;;;5080886;28;20477;-78
2023/09/03 12:03:33;;;;;;;5.47;2.67;;;25.00;70.20;;;;;;5087237;28;20453;-79
2023/09/03 12:06:04;;;;;;;5.57;3.10;;;24.90;69.40;;;;;;5087708;28;20464;-80
2023/09/03 12:08:32;;;;;;;6.00;3.20;;;24.80;68.90;;;;;;5088270;28;20468;-79
2023/09/03 12:11:01;;;;;;;5.87;2.83;;;24.80;69.10;;;;;;5078646;28;20457;-78
2023/09/03 12:13:30;;;;;;;5.50;2.70;;;24.70;69.00;;;;;;5083262;28;20480;-79
2023/09/03 12:16:07;;;;;;;6.47;3.00;;;24.70;68.50;;;;;;5085947;28;20461;-78
2023/09/03 12:18:36;;;;;;;6.27;3.20;;;24.70;68.40;;;;;;5084387;28;21103;-79
2023/09/03 12:21:07;;;;;;;5.43;3.13;;;24.80;68.40;;;;;;5063416;28;20472;-79
2023/09/03 12:23:37;;;;;;;5.70;3.03;;;24.80;68.20;;;;;;5081206;28;20813;-80
2023/09/03 12:26:05;;;;;;;6.77;3.17;;;24.90;68.30;;;;;;5073098;28;20472;-78
2023/09/03 12:28:35;;;;;;;6.00;3.50;;;24.90;68.40;;;;;;5081202;28;20454;-76
2023/09/03 12:31:04;;;;;;;9.73;3.70;;;25.00;68.20;;;;;;5080176;28;20481;-76
2023/09/03 12:33:48;;;;;;;5.70;3.40;;;25.10;68.20;;;;;;5064239;28;21023;-78
2023/09/03 12:36:18;;;;;;;6.77;2.77;;;25.20;68.10;;;;;;5085650;28;20994;-78
2023/09/03 12:38:51;;;;;;;6.50;3.13;;;25.20;67.90;;;;;;5084011;28;20465;-78
2023/09/03 12:41:20;;;;;;;6.30;3.40;;;25.20;67.60;;;;;;5080874;28;20464;-79
2023/09/03 12:43:50;;;;;;;6.57;3.00;;;25.20;67.50;;;;;;5081987;28;21004;-78
2023/09/03 12:46:20;;;;;;;6.33;3.37;;;25.20;67.50;;;;;;5065828;28;20465;-78
2023/09/03 12:48:48;;;;;;;6.40;3.13;;;25.20;67.20;;;;;;5067730;28;20464;-78
2023/09/03 12:51:18;;;;;;;6.77;2.87;;;25.20;66.90;;;;;;5082978;28;20498;-79
2023/09/03 12:53:47;;;;;;;6.40;3.10;;;25.10;66.80;;;;;;5067849;28;20970;-78
2023/09/03 12:56:16;;;;;;;5.53;2.97;;;25.10;66.30;;;;;;5082203;28;20457;-78
2023/09/03 12:58:46;;;;;;;5.30;2.70;;;25.00;66.30;;;;;;5081794;28;20539;-78
2023/09/03 13:01:15;;;;;;;7.60;3.90;;;25.00;66.30;;;;;;5083878;28;20479;-78